Zaka, Zimbabwe

7:03 AM CAT on May 29, 2015 (GMT +0200)
Masvingo | | Change Station
CLOSE
Current Station
Airport
Location: Masvingo,
Elevation: 3593 ft
Nearby Weather Stations

Elev 3593 ft 20.06 °S, 30.86 °E | Updated 1 hour ago

Clear
Clear
39 °F
Feels Like 39 °F
N
0
Wind Variable Wind from North

Today
High -- | Low -- °F
--% Chance of Precip.
Yesterday
High -- | Low -- °F
Precip. -- in
6:21 AM 5:21 PM
Waxing Gibbous, 81% visible
Pressure 30.21 in
Visibility -9999.0 miles
Clouds
Dew Point 37 °F
Humidity 93%
Rainfall 0.00 in
Snow Depth Not available.
UV Not available.
Pollen Not available.
Air Quality Not available.
Flu Activity Not available.
METAR FVMV 290400Z 00000KT CAVOK 04/03 Q1023

More Conditions Fewer Conditions

Pressure 30.21 in
Visibility -9999.0 miles
Clouds
Dew Point 37 °F
Humidity 93%
Rainfall 0.00 in
Snow Depth Not available.
UV Not available.
Pollen Not available.
Air Quality Not available.
Flu Activity Not available.
METAR FVMV 290400Z 00000KT CAVOK 04/03 Q1023

More Conditions Fewer Conditions

10-Day Weather Forecast

Almanac

Astronomy

May. 29, 2015 Rise Set
Actual Time
Civil Twilight
Nautical Twilight
Astronomical Twilight
Moon
Length of Visible Light
Length of Day
Tomorrow will be .
, % of the Moon is Illuminated

Today's Extremes

Country Highs Country Lows

Community

WunderPhotos

Upload Photos

1,825,211 photos uploaded!

WunderBlogs® & News

Nearby

Air Quality

  Air Quality AQ Index Pollutant
Not available.

Snow Depth

Station Depth Elevation

Earthquake Activity

City Distance Mag. Time & Date
Minimum magnitude displayed is 2.5.

Coastal Water Temperatures

Place Temperature

Stations

Nearby Weather Stations

Station Location Temp. Windchill Dew Point Humidity Wind Precip. Elev Updated Type